createdAt,value
2023-05-17T07:36:31.143Z,1.50
2023-05-17T07:39:33.034Z,1.95
2023-05-17T07:42:34.559Z,1.55
2023-05-17T07:45:36.173Z,1.50
2023-05-17T07:48:37.850Z,1.73
2023-05-17T07:51:39.565Z,1.42
2023-05-17T07:54:41.164Z,1.60
2023-05-17T07:57:43.910Z,1.40
2023-05-17T08:00:45.458Z,1.23
2023-05-17T08:03:49.850Z,1.60
2023-05-17T08:06:51.718Z,1.20
2023-05-17T08:09:53.234Z,1.30
2023-05-17T08:12:57.419Z,1.30
2023-05-17T08:16:12.587Z,1.02
2023-05-17T08:19:16.569Z,1.50
2023-05-17T08:22:18.217Z,1.30
2023-05-17T08:25:20.447Z,1.35
2023-05-17T08:28:22.266Z,1.40
2023-05-17T08:31:23.880Z,1.13
2023-05-17T08:34:25.627Z,1.35
2023-05-17T08:37:27.114Z,1.40
2023-05-17T08:40:29.034Z,1.08
2023-05-17T08:43:31.421Z,1.30
2023-05-17T08:46:36.800Z,1.15
2023-05-17T08:49:38.734Z,1.10
2023-05-17T08:52:41.962Z,1.45
2023-05-17T08:55:50.276Z,1.10
2023-05-17T08:58:57.838Z,1.20
2023-05-17T09:02:00.677Z,1.35
2023-05-17T09:05:02.515Z,1.08
2023-05-17T09:08:04.589Z,1.17
2023-05-17T09:11:06.186Z,1.10
2023-05-17T09:14:07.969Z,1.27
2023-05-17T09:17:15.633Z,1.10
2023-05-17T09:20:35.245Z,1.02
2023-05-17T09:23:38.507Z,1.37
2023-05-17T09:26:44.817Z,1.10
2023-05-17T09:29:46.467Z,0.90
2023-05-17T09:35:56.141Z,1.83
2023-05-17T09:39:04.371Z,1.40
2023-05-17T09:42:06.390Z,1.40
2023-05-17T09:45:08.108Z,1.38
2023-05-17T09:48:15.491Z,1.42
2023-05-17T09:51:17.093Z,1.38
2023-05-17T09:54:19.172Z,1.52
2023-05-17T09:57:21.143Z,1.52
2023-05-17T10:00:23.038Z,1.33
2023-05-17T10:03:46.585Z,1.80
2023-05-17T10:06:51.965Z,1.30
2023-05-17T10:09:55.966Z,1.20
2023-05-17T10:12:58.953Z,1.42
2023-05-17T10:16:01.462Z,1.45
2023-05-17T10:19:03.783Z,1.20
2023-05-17T10:22:21.562Z,1.55
2023-05-17T10:25:24.799Z,1.00
2023-05-17T10:28:27.367Z,1.10
2023-05-17T10:31:33.299Z,1.42
2023-05-17T10:34:36.182Z,1.15
2023-05-17T10:37:38.449Z,1.65
2023-05-17T10:40:42.148Z,1.17
2023-05-17T10:43:45.032Z,1.20
2023-05-17T10:46:57.458Z,1.30
2023-05-17T10:49:59.091Z,1.38
2023-05-17T10:53:00.765Z,1.27
2023-05-17T10:56:02.412Z,1.10
2023-05-17T10:59:26.944Z,0.95
2023-05-17T11:02:29.270Z,1.20
2023-05-17T11:05:31.043Z,1.48
2023-05-17T11:08:33.148Z,1.27
2023-05-17T11:11:34.773Z,1.08
2023-05-17T11:14:45.297Z,1.30
2023-05-17T11:17:56.965Z,0.93
2023-05-17T11:21:08.736Z,1.23
2023-05-17T11:24:16.051Z,1.30
2023-05-17T11:27:20.043Z,1.30
2023-05-17T11:30:27.051Z,1.10
2023-05-17T11:33:45.446Z,1.10
2023-05-17T11:36:55.035Z,1.10
2023-05-17T11:40:07.922Z,1.13
2023-05-17T11:43:11.012Z,1.48
2023-05-17T11:46:20.337Z,1.30
2023-05-17T11:49:33.927Z,1.15
2023-05-17T11:52:37.061Z,1.27
2023-05-17T11:55:44.019Z,1.13
2023-05-17T11:58:46.386Z,1.08
2023-05-17T12:01:49.692Z,0.90
2023-05-17T12:04:51.579Z,1.15
2023-05-17T12:07:53.312Z,0.90
2023-05-17T12:10:57.042Z,0.90
2023-05-17T12:13:58.574Z,1.20
2023-05-17T12:17:03.900Z,1.05
2023-05-17T12:20:09.723Z,1.17
2023-05-17T12:23:11.433Z,1.20
2023-05-17T12:26:14.413Z,1.02
2023-05-17T12:29:21.544Z,1.10
2023-05-17T12:32:23.216Z,1.33
2023-05-17T12:35:24.831Z,0.88
2023-05-17T12:38:28.424Z,1.00
2023-05-17T12:41:30.730Z,1.00
2023-05-17T12:44:32.615Z,1.00
2023-05-17T12:47:34.236Z,1.15
2023-05-17T12:50:35.867Z,0.95
2023-05-17T12:53:39.610Z,1.33
2023-05-17T12:56:43.666Z,1.20
2023-05-17T12:59:49.381Z,1.08
2023-05-17T13:02:51.686Z,1.00
2023-05-17T13:06:19.635Z,1.05
2023-05-17T13:09:23.919Z,1.17
2023-05-17T13:12:25.556Z,1.00
2023-05-17T13:15:31.555Z,1.02
2023-05-17T13:18:50.268Z,1.77
2023-05-17T13:21:51.826Z,1.65
2023-05-17T13:24:54.142Z,2.25
2023-05-17T13:27:55.759Z,1.75
2023-05-17T13:30:57.242Z,1.80
2023-05-17T13:33:58.919Z,2.05
2023-05-17T13:37:00.510Z,1.80
2023-05-17T13:40:03.434Z,1.33
2023-05-17T13:43:04.992Z,2.00
2023-05-17T13:46:06.600Z,1.83
2023-05-17T13:49:08.294Z,1.40
2023-05-17T13:52:10.092Z,1.80
2023-05-17T13:55:11.647Z,1.40
2023-05-17T13:58:14.006Z,1.55
2023-05-17T14:01:16.501Z,1.40
2023-05-17T14:04:18.199Z,1.23
2023-05-17T14:07:19.726Z,1.20
2023-05-17T14:10:21.267Z,1.83
2023-05-17T14:13:22.850Z,1.50
2023-05-17T14:16:24.454Z,1.40
2023-05-17T14:19:26.226Z,1.42
2023-05-17T14:22:27.809Z,1.27
2023-05-17T14:25:29.347Z,1.25
2023-05-17T14:28:31.151Z,1.40
2023-05-17T14:31:32.693Z,1.10
2023-05-17T14:34:34.257Z,1.33
2023-05-17T14:37:36.305Z,1.25
2023-05-17T14:40:37.835Z,1.42
2023-05-17T14:43:39.358Z,1.10
2023-05-17T14:46:41.126Z,1.00
2023-05-17T14:49:42.664Z,1.20
2023-05-17T14:52:44.402Z,1.63
2023-05-17T14:55:45.909Z,1.42
2023-05-17T14:58:47.513Z,1.20
2023-05-17T15:01:49.326Z,1.48
2023-05-17T15:04:51.274Z,1.40
2023-05-17T15:07:52.901Z,1.13
2023-05-17T15:10:54.572Z,1.48
2023-05-17T15:13:56.745Z,1.23
2023-05-17T15:16:58.505Z,1.40
2023-05-17T15:20:00.131Z,1.58
2023-05-17T15:23:01.728Z,1.77
2023-05-17T15:26:03.249Z,1.92
2023-05-17T15:29:04.849Z,1.90
2023-05-17T15:32:07.055Z,2.15
2023-05-17T15:35:08.941Z,2.00
2023-05-17T15:38:10.859Z,1.73
2023-05-17T15:41:14.785Z,1.58
2023-05-17T15:44:16.362Z,1.77
2023-05-17T15:47:18.441Z,1.60
2023-05-17T15:50:20.833Z,1.90
2023-05-17T15:53:23.382Z,1.40
2023-05-17T15:56:25.226Z,1.67
2023-05-17T15:59:27.219Z,1.70
2023-05-17T16:02:29.191Z,1.63
2023-05-17T16:05:33.983Z,1.63
2023-05-17T16:08:35.560Z,1.20
2023-05-17T16:11:37.119Z,1.35
2023-05-17T16:14:40.588Z,1.45
2023-05-17T16:17:42.272Z,1.42
2023-05-17T16:20:44.382Z,1.25
2023-05-17T16:23:46.418Z,1.35
2023-05-17T16:26:48.019Z,1.58
2023-05-17T16:29:49.534Z,2.25
2023-05-17T16:32:51.230Z,2.38
2023-05-17T16:35:52.866Z,2.63
2023-05-17T16:38:54.571Z,2.50
2023-05-17T16:41:56.173Z,2.80
2023-05-17T16:44:57.778Z,2.63
2023-05-17T16:47:59.395Z,2.65
2023-05-17T16:51:00.962Z,2.38
2023-05-17T16:54:03.228Z,2.38
2023-05-17T16:57:07.989Z,2.13
2023-05-17T17:00:11.921Z,2.38
2023-05-17T17:03:13.692Z,2.15
2023-05-17T17:06:15.360Z,2.08
2023-05-17T17:09:16.921Z,2.03
2023-05-17T17:12:24.798Z,1.60
2023-05-17T17:15:27.637Z,1.80
2023-05-17T17:18:29.463Z,1.92
2023-05-17T17:21:36.246Z,1.70
2023-05-17T17:24:38.535Z,2.10
2023-05-17T17:27:40.351Z,1.80
2023-05-17T17:30:41.986Z,1.80
2023-05-17T17:33:43.546Z,2.00
2023-05-17T17:36:45.079Z,2.00
2023-05-17T17:39:46.610Z,1.40
2023-05-17T17:42:48.167Z,1.92
2023-05-17T17:45:49.700Z,1.95
